sensor_id;sensor_type;location;lat;lon;timestamp;temperature;humidity
21895;DHT22;11112;51.270;7.224;2022-12-31T00:01:13;11.60;99.90
21895;DHT22;11112;51.270;7.224;2022-12-31T00:03:42;11.70;99.90
21895;DHT22;11112;51.270;7.224;2022-12-31T00:06:19;11.70;99.90
21895;DHT22;11112;51.270;7.224;2022-12-31T00:08:48;11.70;99.90
21895;DHT22;11112;51.270;7.224;2022-12-31T00:11:17;11.70;99.90
21895;DHT22;11112;51.270;7.224;2022-12-31T00:13:45;11.70;99.90
21895;DHT22;11112;51.270;7.224;2022-12-31T00:16:14;11.70;99.90
21895;DHT22;11112;51.270;7.224;2022-12-31T00:18:43;11.70;99.90
21895;DHT22;11112;51.270;7.224;2022-12-31T00:21:12;11.70;99.90
21895;DHT22;11112;51.270;7.224;2022-12-31T00:23:39;11.70;99.90
21895;DHT22;11112;51.270;7.224;2022-12-31T00:26:08;11.70;99.90
21895;DHT22;11112;51.270;7.224;2022-12-31T00:28:39;11.70;99.90
21895;DHT22;11112;51.270;7.224;2022-12-31T00:31:09;11.70;99.90
21895;DHT22;11112;51.270;7.224;2022-12-31T00:33:37;11.70;99.90
21895;DHT22;11112;51.270;7.224;2022-12-31T00:36:06;11.70;99.90
21895;DHT22;11112;51.270;7.224;2022-12-31T00:38:35;11.70;99.90
21895;DHT22;11112;51.270;7.224;2022-12-31T00:41:07;11.70;99.90
21895;DHT22;11112;51.270;7.224;2022-12-31T00:43:34;11.70;99.90
21895;DHT22;11112;51.270;7.224;2022-12-31T00:46:04;11.70;99.90
21895;DHT22;11112;51.270;7.224;2022-12-31T00:48:32;11.70;99.90
21895;DHT22;11112;51.270;7.224;2022-12-31T00:51:00;11.70;99.90
21895;DHT22;11112;51.270;7.224;2022-12-31T00:53:29;11.70;99.90
21895;DHT22;11112;51.270;7.224;2022-12-31T00:55:59;11.70;99.90
21895;DHT22;11112;51.270;7.224;2022-12-31T00:58:26;11.80;99.90
21895;DHT22;11112;51.270;7.224;2022-12-31T01:00:53;11.80;99.90
21895;DHT22;11112;51.270;7.224;2022-12-31T01:03:22;11.80;99.90
21895;DHT22;11112;51.270;7.224;2022-12-31T01:05:50;11.80;99.90
21895;DHT22;11112;51.270;7.224;2022-12-31T01:08:18;11.90;99.90
21895;DHT22;11112;51.270;7.224;2022-12-31T01:10:47;11.80;99.90
21895;DHT22;11112;51.270;7.224;2022-12-31T01:13:32;11.80;99.90
21895;DHT22;11112;51.270;7.224;2022-12-31T01:16:05;11.90;99.90
21895;DHT22;11112;51.270;7.224;2022-12-31T01:18:34;11.80;99.90
21895;DHT22;11112;51.270;7.224;2022-12-31T01:21:03;11.80;99.90
21895;DHT22;11112;51.270;7.224;2022-12-31T01:23:32;11.80;99.90
21895;DHT22;11112;51.270;7.224;2022-12-31T01:26:00;11.90;99.90
21895;DHT22;11112;51.270;7.224;2022-12-31T01:28:28;11.90;99.90
21895;DHT22;11112;51.270;7.224;2022-12-31T01:30:55;11.90;99.90
21895;DHT22;11112;51.270;7.224;2022-12-31T01:33:23;11.90;99.90
21895;DHT22;11112;51.270;7.224;2022-12-31T01:35:51;11.90;99.90
21895;DHT22;11112;51.270;7.224;2022-12-31T01:38:18;11.90;99.90
21895;DHT22;11112;51.270;7.224;2022-12-31T01:40:45;11.90;99.90
21895;DHT22;11112;51.270;7.224;2022-12-31T01:43:15;12.00;99.90
21895;DHT22;11112;51.270;7.224;2022-12-31T01:45:43;12.00;99.90
21895;DHT22;11112;51.270;7.224;2022-12-31T01:48:14;12.00;99.90
21895;DHT22;11112;51.270;7.224;2022-12-31T01:50:45;12.00;99.90
21895;DHT22;11112;51.270;7.224;2022-12-31T01:53:14;12.00;99.90
21895;DHT22;11112;51.270;7.224;2022-12-31T01:55:46;12.00;99.90
21895;DHT22;11112;51.270;7.224;2022-12-31T01:58:17;12.00;99.90
21895;DHT22;11112;51.270;7.224;2022-12-31T02:00:46;12.00;99.90
21895;DHT22;11112;51.270;7.224;2022-12-31T02:03:13;12.00;99.90
21895;DHT22;11112;51.270;7.224;2022-12-31T02:05:45;12.10;99.90
21895;DHT22;11112;51.270;7.224;2022-12-31T02:08:17;12.10;99.90
21895;DHT22;11112;51.270;7.224;2022-12-31T02:10:44;12.10;99.90
21895;DHT22;11112;51.270;7.224;2022-12-31T02:13:12;12.10;99.90
21895;DHT22;11112;51.270;7.224;2022-12-31T02:15:48;12.20;99.90
21895;DHT22;11112;51.270;7.224;2022-12-31T02:18:26;12.20;99.90
21895;DHT22;11112;51.270;7.224;2022-12-31T02:21:13;12.20;99.90
21895;DHT22;11112;51.270;7.224;2022-12-31T02:24:39;12.30;99.90
21895;DHT22;11112;51.270;7.224;2022-12-31T02:27:33;12.30;99.90
21895;DHT22;11112;51.270;7.224;2022-12-31T02:30:13;12.30;99.90
21895;DHT22;11112;51.270;7.224;2022-12-31T02:32:48;12.30;99.90
21895;DHT22;11112;51.270;7.224;2022-12-31T02:35:23;12.30;99.90
21895;DHT22;11112;51.270;7.224;2022-12-31T02:37:58;12.40;99.90
21895;DHT22;11112;51.270;7.224;2022-12-31T02:40:28;12.40;99.90
21895;DHT22;11112;51.270;7.224;2022-12-31T02:42:56;12.40;99.90
21895;DHT22;11112;51.270;7.224;2022-12-31T02:45:27;12.40;99.90
21895;DHT22;11112;51.270;7.224;2022-12-31T02:48:09;12.40;99.90
21895;DHT22;11112;51.270;7.224;2022-12-31T02:50:47;12.40;99.90
21895;DHT22;11112;51.270;7.224;2022-12-31T02:53:33;12.40;99.90
21895;DHT22;11112;51.270;7.224;2022-12-31T02:56:12;12.40;99.90
21895;DHT22;11112;51.270;7.224;2022-12-31T02:58:48;12.40;99.90
21895;DHT22;11112;51.270;7.224;2022-12-31T03:01:42;12.50;99.90
21895;DHT22;11112;51.270;7.224;2022-12-31T03:04:31;12.50;99.90
21895;DHT22;11112;51.270;7.224;2022-12-31T03:07:02;12.50;99.90
21895;DHT22;11112;51.270;7.224;2022-12-31T03:09:30;12.50;99.90
21895;DHT22;11112;51.270;7.224;2022-12-31T03:11:57;12.50;99.90
21895;DHT22;11112;51.270;7.224;2022-12-31T03:14:42;12.50;99.90
21895;DHT22;11112;51.270;7.224;2022-12-31T03:17:10;12.50;99.90
21895;DHT22;11112;51.270;7.224;2022-12-31T03:19:38;12.50;99.90
21895;DHT22;11112;51.270;7.224;2022-12-31T03:22:22;12.60;99.90
21895;DHT22;11112;51.270;7.224;2022-12-31T03:24:57;12.50;99.90
21895;DHT22;11112;51.270;7.224;2022-12-31T03:27:44;12.50;99.90
21895;DHT22;11112;51.270;7.224;2022-12-31T03:30:12;12.50;99.90
21895;DHT22;11112;51.270;7.224;2022-12-31T03:32:43;12.60;99.90
21895;DHT22;11112;51.270;7.224;2022-12-31T03:35:12;12.50;99.90
21895;DHT22;11112;51.270;7.224;2022-12-31T03:37:40;12.60;99.90
21895;DHT22;11112;51.270;7.224;2022-12-31T03:40:10;12.60;99.90
21895;DHT22;11112;51.270;7.224;2022-12-31T03:42:38;12.60;99.90
21895;DHT22;11112;51.270;7.224;2022-12-31T03:45:07;12.60;99.90
21895;DHT22;11112;51.270;7.224;2022-12-31T03:47:35;12.60;99.90
21895;DHT22;11112;51.270;7.224;2022-12-31T03:50:05;12.70;99.90
21895;DHT22;11112;51.270;7.224;2022-12-31T03:52:33;12.70;99.90
21895;DHT22;11112;51.270;7.224;2022-12-31T03:55:01;12.70;99.90
21895;DHT22;11112;51.270;7.224;2022-12-31T03:57:28;12.70;99.90
21895;DHT22;11112;51.270;7.224;2022-12-31T03:59:55;12.70;99.90
21895;DHT22;11112;51.270;7.224;2022-12-31T04:02:23;12.70;99.90
21895;DHT22;11112;51.270;7.224;2022-12-31T04:04:50;12.70;99.90
21895;DHT22;11112;51.270;7.224;2022-12-31T04:07:19;12.70;99.90
21895;DHT22;11112;51.270;7.224;2022-12-31T04:09:46;12.80;99.90
21895;DHT22;11112;51.270;7.224;2022-12-31T04:12:13;12.80;99.90
21895;DHT22;11112;51.270;7.224;2022-12-31T04:14:40;12.80;99.90
21895;DHT22;11112;51.270;7.224;2022-12-31T04:17:07;12.80;99.90
21895;DHT22;11112;51.270;7.224;2022-12-31T04:19:34;12.90;99.90
21895;DHT22;11112;51.270;7.224;2022-12-31T04:22:02;12.90;99.90
21895;DHT22;11112;51.270;7.224;2022-12-31T04:24:30;12.90;99.90
21895;DHT22;11112;51.270;7.224;2022-12-31T04:26:58;12.90;99.90
21895;DHT22;11112;51.270;7.224;2022-12-31T04:29:25;12.90;99.90
21895;DHT22;11112;51.270;7.224;2022-12-31T04:31:52;12.90;99.90
21895;DHT22;11112;51.270;7.224;2022-12-31T04:34:19;12.90;99.90
21895;DHT22;11112;51.270;7.224;2022-12-31T04:36:46;12.90;99.90
21895;DHT22;11112;51.270;7.224;2022-12-31T04:39:13;12.90;99.90
21895;DHT22;11112;51.270;7.224;2022-12-31T04:41:41;12.90;99.90
21895;DHT22;11112;51.270;7.224;2022-12-31T04:44:08;12.90;99.90
21895;DHT22;11112;51.270;7.224;2022-12-31T04:46:35;12.90;99.90
21895;DHT22;11112;51.270;7.224;2022-12-31T04:49:02;12.90;99.90
21895;DHT22;11112;51.270;7.224;2022-12-31T04:51:30;12.90;99.90
21895;DHT22;11112;51.270;7.224;2022-12-31T04:53:58;12.90;99.90
21895;DHT22;11112;51.270;7.224;2022-12-31T04:56:27;13.00;99.90
21895;DHT22;11112;51.270;7.224;2022-12-31T04:58:55;13.00;99.90
21895;DHT22;11112;51.270;7.224;2022-12-31T05:01:23;13.00;99.90
21895;DHT22;11112;51.270;7.224;2022-12-31T05:03:50;13.00;99.90
21895;DHT22;11112;51.270;7.224;2022-12-31T05:06:19;13.10;99.90
21895;DHT22;11112;51.270;7.224;2022-12-31T05:08:48;13.10;99.90
21895;DHT22;11112;51.270;7.224;2022-12-31T05:11:16;13.10;99.90
21895;DHT22;11112;51.270;7.224;2022-12-31T05:13:43;13.10;99.90
21895;DHT22;11112;51.270;7.224;2022-12-31T05:16:11;13.10;99.90
21895;DHT22;11112;51.270;7.224;2022-12-31T05:18:39;13.10;99.90
21895;DHT22;11112;51.270;7.224;2022-12-31T05:21:06;13.10;99.90
21895;DHT22;11112;51.270;7.224;2022-12-31T05:23:33;13.20;99.90
21895;DHT22;11112;51.270;7.224;2022-12-31T05:26:00;13.20;99.90
21895;DHT22;11112;51.270;7.224;2022-12-31T05:28:27;13.20;99.90
21895;DHT22;11112;51.270;7.224;2022-12-31T05:30:54;13.30;99.90
21895;DHT22;11112;51.270;7.224;2022-12-31T05:33:22;13.30;99.90
21895;DHT22;11112;51.270;7.224;2022-12-31T05:35:50;13.30;99.90
21895;DHT22;11112;51.270;7.224;2022-12-31T05:38:17;13.40;99.90
21895;DHT22;11112;51.270;7.224;2022-12-31T05:40:44;13.40;99.90
21895;DHT22;11112;51.270;7.224;2022-12-31T05:43:11;13.40;99.90
21895;DHT22;11112;51.270;7.224;2022-12-31T05:45:38;13.40;99.90
21895;DHT22;11112;51.270;7.224;2022-12-31T05:48:05;13.40;99.90
21895;DHT22;11112;51.270;7.224;2022-12-31T05:50:33;13.40;99.90
21895;DHT22;11112;51.270;7.224;2022-12-31T05:53:00;13.50;99.90
21895;DHT22;11112;51.270;7.224;2022-12-31T05:55:27;13.50;99.90
21895;DHT22;11112;51.270;7.224;2022-12-31T05:57:54;13.50;99.90
21895;DHT22;11112;51.270;7.224;2022-12-31T06:00:21;13.60;99.90
21895;DHT22;11112;51.270;7.224;2022-12-31T06:02:48;13.60;99.90
21895;DHT22;11112;51.270;7.224;2022-12-31T06:05:16;13.60;99.90
21895;DHT22;11112;51.270;7.224;2022-12-31T06:07:44;13.60;99.90
21895;DHT22;11112;51.270;7.224;2022-12-31T06:10:11;13.60;99.90
21895;DHT22;11112;51.270;7.224;2022-12-31T06:12:39;13.60;99.90
21895;DHT22;11112;51.270;7.224;2022-12-31T06:15:07;13.60;99.90
21895;DHT22;11112;51.270;7.224;2022-12-31T06:17:35;13.60;99.90
21895;DHT22;11112;51.270;7.224;2022-12-31T06:20:02;13.70;99.90
21895;DHT22;11112;51.270;7.224;2022-12-31T06:22:30;13.60;99.90
21895;DHT22;11112;51.270;7.224;2022-12-31T06:24:58;13.70;99.90
21895;DHT22;11112;51.270;7.224;2022-12-31T06:27:25;13.70;99.90
21895;DHT22;11112;51.270;7.224;2022-12-31T06:29:52;13.70;99.90
21895;DHT22;11112;51.270;7.224;2022-12-31T06:32:19;13.80;99.90
21895;DHT22;11112;51.270;7.224;2022-12-31T06:34:46;13.70;99.90
21895;DHT22;11112;51.270;7.224;2022-12-31T06:37:13;13.70;99.90
21895;DHT22;11112;51.270;7.224;2022-12-31T06:39:40;13.80;99.90
21895;DHT22;11112;51.270;7.224;2022-12-31T06:42:09;13.70;99.90
21895;DHT22;11112;51.270;7.224;2022-12-31T06:44:36;13.80;99.90
21895;DHT22;11112;51.270;7.224;2022-12-31T06:47:03;13.80;99.90
21895;DHT22;11112;51.270;7.224;2022-12-31T06:49:30;13.80;99.90
21895;DHT22;11112;51.270;7.224;2022-12-31T06:51:57;13.80;99.90
21895;DHT22;11112;51.270;7.224;2022-12-31T06:54:24;13.80;99.90
21895;DHT22;11112;51.270;7.224;2022-12-31T06:56:52;13.80;99.90
21895;DHT22;11112;51.270;7.224;2022-12-31T06:59:26;13.80;99.90
21895;DHT22;11112;51.270;7.224;2022-12-31T07:02:25;13.80;99.90
21895;DHT22;11112;51.270;7.224;2022-12-31T07:05:08;13.80;99.90
21895;DHT22;11112;51.270;7.224;2022-12-31T07:08:00;13.90;99.90
21895;DHT22;11112;51.270;7.224;2022-12-31T07:10:41;13.90;99.90
21895;DHT22;11112;51.270;7.224;2022-12-31T07:13:27;13.90;99.90
21895;DHT22;11112;51.270;7.224;2022-12-31T07:16:24;13.80;99.90
21895;DHT22;11112;51.270;7.224;2022-12-31T07:19:06;13.90;99.90
21895;DHT22;11112;51.270;7.224;2022-12-31T07:21:43;13.90;99.90
21895;DHT22;11112;51.270;7.224;2022-12-31T07:24:12;13.90;99.90
21895;DHT22;11112;51.270;7.224;2022-12-31T07:26:58;13.90;99.90
21895;DHT22;11112;51.270;7.224;2022-12-31T07:29:41;13.90;99.90
21895;DHT22;11112;51.270;7.224;2022-12-31T07:32:25;14.00;99.90
21895;DHT22;11112;51.270;7.224;2022-12-31T07:35:04;14.00;99.90
21895;DHT22;11112;51.270;7.224;2022-12-31T07:37:43;14.00;99.90
21895;DHT22;11112;51.270;7.224;2022-12-31T07:40:19;14.00;99.90
21895;DHT22;11112;51.270;7.224;2022-12-31T07:43:03;14.00;99.90
21895;DHT22;11112;51.270;7.224;2022-12-31T07:45:38;14.00;99.90
21895;DHT22;11112;51.270;7.224;2022-12-31T07:48:22;14.00;99.90
21895;DHT22;11112;51.270;7.224;2022-12-31T07:50:52;14.00;99.90
21895;DHT22;11112;51.270;7.224;2022-12-31T07:53:21;14.10;99.90
21895;DHT22;11112;51.270;7.224;2022-12-31T07:55:52;14.10;99.90
21895;DHT22;11112;51.270;7.224;2022-12-31T07:58:24;14.00;99.90
21895;DHT22;11112;51.270;7.224;2022-12-31T08:00:59;14.00;99.90
21895;DHT22;11112;51.270;7.224;2022-12-31T08:03:43;14.00;99.90
21895;DHT22;11112;51.270;7.224;2022-12-31T08:06:21;14.00;99.90
21895;DHT22;11112;51.270;7.224;2022-12-31T08:08:57;14.00;99.90
21895;DHT22;11112;51.270;7.224;2022-12-31T08:11:34;14.00;99.90
21895;DHT22;11112;51.270;7.224;2022-12-31T08:14:07;14.00;99.90
21895;DHT22;11112;51.270;7.224;2022-12-31T08:16:37;14.10;99.90
21895;DHT22;11112;51.270;7.224;2022-12-31T08:19:15;14.10;99.90
21895;DHT22;11112;51.270;7.224;2022-12-31T08:21:57;14.10;99.90
21895;DHT22;11112;51.270;7.224;2022-12-31T08:24:36;14.10;99.90
21895;DHT22;11112;51.270;7.224;2022-12-31T08:27:16;14.20;99.90
21895;DHT22;11112;51.270;7.224;2022-12-31T08:29:54;14.20;99.90
21895;DHT22;11112;51.270;7.224;2022-12-31T08:32:27;14.20;99.90
21895;DHT22;11112;51.270;7.224;2022-12-31T08:35:05;14.10;99.90
21895;DHT22;11112;51.270;7.224;2022-12-31T08:37:45;14.20;99.90
21895;DHT22;11112;51.270;7.224;2022-12-31T08:40:23;14.20;99.90
21895;DHT22;11112;51.270;7.224;2022-12-31T08:43:11;14.20;99.90
21895;DHT22;11112;51.270;7.224;2022-12-31T08:45:47;14.20;99.90
21895;DHT22;11112;51.270;7.224;2022-12-31T08:48:24;14.20;99.90
21895;DHT22;11112;51.270;7.224;2022-12-31T08:50:55;14.20;99.90
21895;DHT22;11112;51.270;7.224;2022-12-31T08:53:23;14.20;99.90
21895;DHT22;11112;51.270;7.224;2022-12-31T08:55:56;14.30;99.90
21895;DHT22;11112;51.270;7.224;2022-12-31T08:58:36;14.20;99.90
21895;DHT22;11112;51.270;7.224;2022-12-31T09:01:09;14.30;99.90
21895;DHT22;11112;51.270;7.224;2022-12-31T09:04:01;14.30;99.90
21895;DHT22;11112;51.270;7.224;2022-12-31T09:06:38;14.30;99.90
21895;DHT22;11112;51.270;7.224;2022-12-31T09:09:13;14.30;99.90
21895;DHT22;11112;51.270;7.224;2022-12-31T09:11:53;14.40;99.90
21895;DHT22;11112;51.270;7.224;2022-12-31T09:14:47;14.40;99.90
21895;DHT22;11112;51.270;7.224;2022-12-31T09:17:36;14.30;99.90
21895;DHT22;11112;51.270;7.224;2022-12-31T09:20:16;14.40;99.90
21895;DHT22;11112;51.270;7.224;2022-12-31T09:22:48;14.40;99.90
21895;DHT22;11112;51.270;7.224;2022-12-31T09:25:20;14.40;99.90
21895;DHT22;11112;51.270;7.224;2022-12-31T09:28:01;14.40;99.90
21895;DHT22;11112;51.270;7.224;2022-12-31T09:30:35;14.40;99.90
21895;DHT22;11112;51.270;7.224;2022-12-31T09:33:11;14.40;99.90
21895;DHT22;11112;51.270;7.224;2022-12-31T09:35:43;14.40;99.90
21895;DHT22;11112;51.270;7.224;2022-12-31T09:38:24;14.40;99.90
21895;DHT22;11112;51.270;7.224;2022-12-31T09:41:11;14.40;99.90
21895;DHT22;11112;51.270;7.224;2022-12-31T09:44:17;14.50;99.90
21895;DHT22;11112;51.270;7.224;2022-12-31T09:47:28;14.50;99.90
21895;DHT22;11112;51.270;7.224;2022-12-31T09:50:27;14.50;99.90
21895;DHT22;11112;51.270;7.224;2022-12-31T09:56:34;14.50;99.90
21895;DHT22;11112;51.270;7.224;2022-12-31T09:59:08;14.50;99.90
21895;DHT22;11112;51.270;7.224;2022-12-31T10:01:47;14.60;99.90
21895;DHT22;11112;51.270;7.224;2022-12-31T10:04:41;14.50;99.90
21895;DHT22;11112;51.270;7.224;2022-12-31T10:07:25;14.50;99.90
21895;DHT22;11112;51.270;7.224;2022-12-31T10:10:12;14.60;99.90
21895;DHT22;11112;51.270;7.224;2022-12-31T10:13:08;14.50;99.90
21895;DHT22;11112;51.270;7.224;2022-12-31T10:16:02;14.60;99.90
21895;DHT22;11112;51.270;7.224;2022-12-31T10:18:45;14.60;99.90
21895;DHT22;11112;51.270;7.224;2022-12-31T10:21:38;14.60;99.90
21895;DHT22;11112;51.270;7.224;2022-12-31T10:24:48;14.60;99.90
21895;DHT22;11112;51.270;7.224;2022-12-31T10:27:45;14.70;99.90
21895;DHT22;11112;51.270;7.224;2022-12-31T10:30:17;14.70;99.90
21895;DHT22;11112;51.270;7.224;2022-12-31T10:32:57;14.70;99.90
21895;DHT22;11112;51.270;7.224;2022-12-31T10:35:38;14.70;99.90
21895;DHT22;11112;51.270;7.224;2022-12-31T10:38:18;14.70;99.90
21895;DHT22;11112;51.270;7.224;2022-12-31T10:41:19;14.70;99.90
21895;DHT22;11112;51.270;7.224;2022-12-31T10:44:29;14.70;99.90
21895;DHT22;11112;51.270;7.224;2022-12-31T10:47:32;14.70;99.90
21895;DHT22;11112;51.270;7.224;2022-12-31T10:50:32;14.70;99.90
21895;DHT22;11112;51.270;7.224;2022-12-31T10:53:25;14.70;99.90
21895;DHT22;11112;51.270;7.224;2022-12-31T10:56:34;14.80;99.90
21895;DHT22;11112;51.270;7.224;2022-12-31T10:59:39;14.80;99.90
21895;DHT22;11112;51.270;7.224;2022-12-31T11:06:18;14.80;99.90
21895;DHT22;11112;51.270;7.224;2022-12-31T11:12:53;14.80;99.90
21895;DHT22;11112;51.270;7.224;2022-12-31T11:16:06;14.70;99.90
21895;DHT22;11112;51.270;7.224;2022-12-31T11:18:46;14.80;99.90
21895;DHT22;11112;51.270;7.224;2022-12-31T11:21:26;14.80;99.90
21895;DHT22;11112;51.270;7.224;2022-12-31T11:24:08;14.80;99.90
21895;DHT22;11112;51.270;7.224;2022-12-31T11:26:57;14.80;99.90
21895;DHT22;11112;51.270;7.224;2022-12-31T11:29:43;14.80;99.90
21895;DHT22;11112;51.270;7.224;2022-12-31T11:32:34;14.80;99.90
21895;DHT22;11112;51.270;7.224;2022-12-31T11:35:22;14.90;99.90
21895;DHT22;11112;51.270;7.224;2022-12-31T11:38:03;14.90;99.90
21895;DHT22;11112;51.270;7.224;2022-12-31T11:40:42;14.90;99.90
21895;DHT22;11112;51.270;7.224;2022-12-31T11:43:26;14.90;99.90
21895;DHT22;11112;51.270;7.224;2022-12-31T11:49:27;14.90;99.90
21895;DHT22;11112;51.270;7.224;2022-12-31T11:52:31;14.90;99.90
21895;DHT22;11112;51.270;7.224;2022-12-31T11:55:26;15.00;99.90
21895;DHT22;11112;51.270;7.224;2022-12-31T11:58:07;14.90;99.90
21895;DHT22;11112;51.270;7.224;2022-12-31T12:00:39;15.00;99.90
21895;DHT22;11112;51.270;7.224;2022-12-31T12:03:10;15.00;99.90
21895;DHT22;11112;51.270;7.224;2022-12-31T12:05:39;15.00;99.90
21895;DHT22;11112;51.270;7.224;2022-12-31T12:08:06;15.00;99.90
21895;DHT22;11112;51.270;7.224;2022-12-31T12:10:39;15.00;99.90
21895;DHT22;11112;51.270;7.224;2022-12-31T12:13:22;15.00;99.90
21895;DHT22;11112;51.270;7.224;2022-12-31T12:15:53;15.10;99.90
21895;DHT22;11112;51.270;7.224;2022-12-31T12:18:27;15.00;99.90
21895;DHT22;11112;51.270;7.224;2022-12-31T12:21:07;15.00;99.90
21895;DHT22;11112;51.270;7.224;2022-12-31T12:23:36;15.10;99.90
21895;DHT22;11112;51.270;7.224;2022-12-31T12:26:04;15.10;99.90
21895;DHT22;11112;51.270;7.224;2022-12-31T12:28:42;15.10;99.90
21895;DHT22;11112;51.270;7.224;2022-12-31T12:31:18;15.10;99.90
21895;DHT22;11112;51.270;7.224;2022-12-31T12:33:46;15.00;99.90
21895;DHT22;11112;51.270;7.224;2022-12-31T12:36:17;15.00;99.90
21895;DHT22;11112;51.270;7.224;2022-12-31T12:38:45;15.00;99.90
21895;DHT22;11112;51.270;7.224;2022-12-31T12:41:19;15.00;99.90
21895;DHT22;11112;51.270;7.224;2022-12-31T12:43:48;15.00;99.90
21895;DHT22;11112;51.270;7.224;2022-12-31T12:46:20;15.00;99.90
21895;DHT22;11112;51.270;7.224;2022-12-31T12:48:54;15.00;99.90
21895;DHT22;11112;51.270;7.224;2022-12-31T12:51:28;15.00;99.90
21895;DHT22;11112;51.270;7.224;2022-12-31T12:54:10;15.00;99.90
21895;DHT22;11112;51.270;7.224;2022-12-31T12:56:51;15.00;99.90
21895;DHT22;11112;51.270;7.224;2022-12-31T12:59:46;14.90;99.90
21895;DHT22;11112;51.270;7.224;2022-12-31T13:02:34;14.90;99.90
21895;DHT22;11112;51.270;7.224;2022-12-31T13:05:30;14.90;99.90
21895;DHT22;11112;51.270;7.224;2022-12-31T13:08:13;14.90;99.90
21895;DHT22;11112;51.270;7.224;2022-12-31T13:10:57;14.80;99.90
21895;DHT22;11112;51.270;7.224;2022-12-31T13:13:40;14.80;99.90
21895;DHT22;11112;51.270;7.224;2022-12-31T13:16:16;14.90;99.90
21895;DHT22;11112;51.270;7.224;2022-12-31T13:18:53;14.90;99.90
21895;DHT22;11112;51.270;7.224;2022-12-31T13:21:37;14.90;99.90
21895;DHT22;11112;51.270;7.224;2022-12-31T13:24:19;14.90;99.90
21895;DHT22;11112;51.270;7.224;2022-12-31T13:26:54;14.90;99.90
21895;DHT22;11112;51.270;7.224;2022-12-31T13:29:27;14.90;99.90
21895;DHT22;11112;51.270;7.224;2022-12-31T13:31:58;15.00;99.90
21895;DHT22;11112;51.270;7.224;2022-12-31T13:34:30;14.90;99.90
21895;DHT22;11112;51.270;7.224;2022-12-31T13:37:02;15.00;99.90
21895;DHT22;11112;51.270;7.224;2022-12-31T13:39:37;15.00;99.90
21895;DHT22;11112;51.270;7.224;2022-12-31T13:42:08;15.00;99.90
21895;DHT22;11112;51.270;7.224;2022-12-31T13:44:42;15.00;99.90
21895;DHT22;11112;51.270;7.224;2022-12-31T13:47:12;15.00;99.90
21895;DHT22;11112;51.270;7.224;2022-12-31T13:49:46;15.00;99.90
21895;DHT22;11112;51.270;7.224;2022-12-31T13:52:23;15.00;99.90
21895;DHT22;11112;51.270;7.224;2022-12-31T13:55:01;15.00;99.90
21895;DHT22;11112;51.270;7.224;2022-12-31T13:57:39;15.00;99.90
21895;DHT22;11112;51.270;7.224;2022-12-31T14:00:18;15.00;99.90
21895;DHT22;11112;51.270;7.224;2022-12-31T14:02:54;15.00;99.90
21895;DHT22;11112;51.270;7.224;2022-12-31T14:05:29;15.00;99.90
21895;DHT22;11112;51.270;7.224;2022-12-31T14:08:01;15.00;99.90
21895;DHT22;11112;51.270;7.224;2022-12-31T14:10:40;15.00;99.90
21895;DHT22;11112;51.270;7.224;2022-12-31T14:13:25;14.90;99.90
21895;DHT22;11112;51.270;7.224;2022-12-31T14:16:21;14.90;99.90
21895;DHT22;11112;51.270;7.224;2022-12-31T14:18:58;14.90;99.90
21895;DHT22;11112;51.270;7.224;2022-12-31T14:21:38;14.90;99.90
21895;DHT22;11112;51.270;7.224;2022-12-31T14:24:13;14.80;99.90
21895;DHT22;11112;51.270;7.224;2022-12-31T14:26:48;14.80;99.90
21895;DHT22;11112;51.270;7.224;2022-12-31T14:29:29;14.80;99.90
21895;DHT22;11112;51.270;7.224;2022-12-31T14:32:24;14.80;99.90
21895;DHT22;11112;51.270;7.224;2022-12-31T14:35:39;14.80;99.90
21895;DHT22;11112;51.270;7.224;2022-12-31T14:38:34;14.70;99.90
21895;DHT22;11112;51.270;7.224;2022-12-31T14:41:17;14.70;99.90
21895;DHT22;11112;51.270;7.224;2022-12-31T14:44:04;14.70;99.90
21895;DHT22;11112;51.270;7.224;2022-12-31T14:46:43;14.70;99.90
21895;DHT22;11112;51.270;7.224;2022-12-31T14:49:33;14.70;99.90
21895;DHT22;11112;51.270;7.224;2022-12-31T14:52:19;14.70;99.90
21895;DHT22;11112;51.270;7.224;2022-12-31T14:54:58;14.70;99.90
21895;DHT22;11112;51.270;7.224;2022-12-31T14:57:33;14.60;99.90
21895;DHT22;11112;51.270;7.224;2022-12-31T15:00:23;14.60;99.90
21895;DHT22;11112;51.270;7.224;2022-12-31T15:03:00;14.60;99.90
21895;DHT22;11112;51.270;7.224;2022-12-31T15:05:30;14.60;99.90
21895;DHT22;11112;51.270;7.224;2022-12-31T15:08:13;14.60;99.90
21895;DHT22;11112;51.270;7.224;2022-12-31T15:11:05;14.60;99.90
21895;DHT22;11112;51.270;7.224;2022-12-31T15:13:46;14.60;99.90
21895;DHT22;11112;51.270;7.224;2022-12-31T15:16:35;14.60;99.90
21895;DHT22;11112;51.270;7.224;2022-12-31T15:22:30;14.60;99.90
21895;DHT22;11112;51.270;7.224;2022-12-31T15:25:14;14.60;99.90
21895;DHT22;11112;51.270;7.224;2022-12-31T15:27:46;14.60;99.90
21895;DHT22;11112;51.270;7.224;2022-12-31T15:30:39;14.60;99.90
21895;DHT22;11112;51.270;7.224;2022-12-31T15:33:20;14.60;99.90
21895;DHT22;11112;51.270;7.224;2022-12-31T15:35:55;14.60;99.90
21895;DHT22;11112;51.270;7.224;2022-12-31T15:38:34;14.60;99.90
21895;DHT22;11112;51.270;7.224;2022-12-31T15:41:23;14.60;99.90
21895;DHT22;11112;51.270;7.224;2022-12-31T15:43:56;14.60;99.90
21895;DHT22;11112;51.270;7.224;2022-12-31T15:46:28;14.60;99.90
21895;DHT22;11112;51.270;7.224;2022-12-31T15:49:02;14.60;99.90
21895;DHT22;11112;51.270;7.224;2022-12-31T15:51:32;14.60;99.90
21895;DHT22;11112;51.270;7.224;2022-12-31T15:54:23;14.60;99.90
21895;DHT22;11112;51.270;7.224;2022-12-31T15:56:53;14.60;99.90
21895;DHT22;11112;51.270;7.224;2022-12-31T15:59:21;14.60;99.90
21895;DHT22;11112;51.270;7.224;2022-12-31T16:01:50;14.60;99.90
21895;DHT22;11112;51.270;7.224;2022-12-31T16:04:23;14.60;99.90
21895;DHT22;11112;51.270;7.224;2022-12-31T16:06:51;14.60;99.90
21895;DHT22;11112;51.270;7.224;2022-12-31T16:09:21;14.60;99.90
21895;DHT22;11112;51.270;7.224;2022-12-31T16:11:50;14.60;99.90
21895;DHT22;11112;51.270;7.224;2022-12-31T16:14:21;14.60;99.90
21895;DHT22;11112;51.270;7.224;2022-12-31T16:16:54;14.60;99.90
21895;DHT22;11112;51.270;7.224;2022-12-31T16:19:31;14.60;99.90
21895;DHT22;11112;51.270;7.224;2022-12-31T16:22:05;14.60;99.90
21895;DHT22;11112;51.270;7.224;2022-12-31T16:24:34;14.60;99.90
21895;DHT22;11112;51.270;7.224;2022-12-31T16:27:05;14.60;99.90
21895;DHT22;11112;51.270;7.224;2022-12-31T16:29:35;14.60;99.90
21895;DHT22;11112;51.270;7.224;2022-12-31T16:32:03;14.60;99.90
21895;DHT22;11112;51.270;7.224;2022-12-31T16:34:35;14.60;99.90
21895;DHT22;11112;51.270;7.224;2022-12-31T16:37:05;14.60;99.90
21895;DHT22;11112;51.270;7.224;2022-12-31T16:40:07;14.60;99.90
21895;DHT22;11112;51.270;7.224;2022-12-31T16:42:40;14.60;99.90